createdAt,value
2018-06-16T00:00:40.877Z,64.75
2018-06-16T00:01:40.887Z,64.42
2018-06-16T00:02:40.937Z,64.85
2018-06-16T00:03:40.875Z,65
2018-06-16T00:04:40.878Z,64.65
2018-06-16T00:05:40.876Z,64.63
2018-06-16T00:06:40.872Z,64.79
2018-06-16T00:07:40.873Z,64.52
2018-06-16T00:08:40.876Z,64.59
2018-06-16T00:09:40.953Z,64.91
2018-06-16T00:10:40.983Z,65.01
2018-06-16T00:11:41.156Z,65.26
2018-06-16T00:12:40.961Z,64.84
2018-06-16T00:13:41.358Z,64.65
2018-06-16T00:14:40.945Z,65.04
2018-06-16T00:15:40.933Z,64.89
2018-06-16T00:16:40.961Z,64.81
2018-06-16T00:17:40.961Z,64.66
2018-06-16T00:18:40.967Z,65.7
2018-06-16T00:19:40.977Z,65.3
2018-06-16T00:20:40.968Z,65.5
2018-06-16T00:21:41.179Z,65.22
2018-06-16T00:22:40.976Z,65.02
2018-06-16T00:23:40.931Z,65.12
2018-06-16T00:24:40.903Z,64.96
2018-06-16T00:25:40.939Z,64.97
2018-06-16T00:26:40.894Z,65.29
2018-06-16T00:27:40.962Z,65.6
2018-06-16T00:28:41.008Z,65.53
2018-06-16T00:29:40.858Z,65.66
2018-06-16T00:30:40.978Z,65.49
2018-06-16T00:31:40.932Z,65.24
2018-06-16T00:32:41.020Z,65.51
2018-06-16T00:33:40.963Z,65.22
2018-06-16T00:34:40.953Z,65.61
2018-06-16T00:35:40.878Z,65.63
2018-06-16T00:36:40.867Z,65.61
2018-06-16T00:37:41.136Z,65.54
2018-06-16T00:38:40.977Z,65.62
2018-06-16T00:39:40.986Z,65.34
2018-06-16T00:40:40.934Z,65.67
2018-06-16T00:41:40.981Z,65.3
2018-06-16T00:42:40.968Z,65.87
2018-06-16T00:43:40.945Z,65.46
2018-06-16T00:44:40.984Z,65.34
2018-06-16T00:45:40.883Z,65.46
2018-06-16T00:46:40.960Z,65.36
2018-06-16T00:47:41.027Z,65.52
2018-06-16T00:48:40.955Z,65.28
2018-06-16T00:49:40.885Z,65.35
2018-06-16T00:50:40.873Z,65.46
2018-06-16T00:51:41.348Z,65.33
2018-06-16T00:52:40.879Z,65.34
2018-06-16T00:53:40.916Z,65.5
2018-06-16T00:54:40.872Z,65.51
2018-06-16T00:55:41.048Z,65.34
2018-06-16T00:56:40.869Z,65.79
2018-06-16T00:57:41.006Z,65.64
2018-06-16T00:58:40.966Z,65.37
2018-06-16T00:59:40.904Z,65.74
2018-06-16T01:00:41.245Z,65.61
2018-06-16T01:01:40.980Z,66.27
2018-06-16T01:02:40.911Z,66.21
2018-06-16T01:03:40.864Z,66.34
2018-06-16T01:04:40.855Z,66.21
2018-06-16T01:05:40.936Z,66.16
2018-06-16T01:06:40.918Z,66.58
2018-06-16T01:07:40.866Z,66.58
2018-06-16T01:08:40.865Z,66.21
2018-06-16T01:09:40.930Z,65.96
2018-06-16T01:10:40.855Z,66.45
2018-06-16T01:11:40.852Z,66.4
2018-06-16T01:12:40.913Z,67.11
2018-06-16T01:13:40.898Z,66.3
2018-06-16T01:14:40.841Z,66.53
2018-06-16T01:15:40.868Z,66.8
2018-06-16T01:16:40.906Z,66.36
2018-06-16T01:17:40.861Z,66.47
2018-06-16T01:18:40.869Z,66.36
2018-06-16T01:19:40.940Z,66.42
2018-06-16T01:20:40.873Z,66.31
2018-06-16T01:21:40.967Z,66.14
2018-06-16T01:22:40.863Z,66.31
2018-06-16T01:23:41.001Z,66.27
2018-06-16T01:24:40.835Z,66.21
2018-06-16T01:25:40.939Z,66.16
2018-06-16T01:26:40.843Z,66.15
2018-06-16T01:27:41.040Z,66.06
2018-06-16T01:28:40.816Z,66.16
2018-06-16T01:29:40.829Z,65.8
2018-06-16T01:30:40.983Z,65.57
2018-06-16T01:31:40.990Z,66.06
2018-06-16T01:32:40.871Z,65.84
2018-06-16T01:33:40.842Z,66.27
2018-06-16T01:34:41.007Z,65.88
2018-06-16T01:35:40.845Z,65.73
2018-06-16T01:36:41.079Z,65.46
2018-06-16T01:37:40.894Z,65.55
2018-06-16T01:38:40.904Z,65.38
2018-06-16T01:39:40.958Z,65.28
2018-06-16T01:40:40.845Z,65.48
2018-06-16T01:41:40.964Z,65.61
2018-06-16T01:42:40.905Z,65.53
2018-06-16T01:43:40.831Z,65.68
2018-06-16T01:44:40.873Z,66.25
2018-06-16T01:45:41.022Z,66.84
2018-06-16T01:46:40.852Z,67.35
2018-06-16T01:47:40.886Z,68.01
2018-06-16T01:48:40.866Z,67.93
2018-06-16T01:49:40.826Z,68.19
2018-06-16T01:50:40.833Z,67.73
2018-06-16T01:51:40.850Z,68.33
2018-06-16T01:52:40.925Z,67.93
2018-06-16T01:53:40.846Z,68.72
2018-06-16T01:54:41.009Z,68.33
2018-06-16T01:55:40.887Z,68.36
2018-06-16T01:56:40.975Z,68.18
2018-06-16T01:57:40.956Z,67.84
2018-06-16T01:58:40.811Z,68.59
2018-06-16T01:59:40.895Z,68
2018-06-16T02:00:40.830Z,67.71
2018-06-16T02:01:40.846Z,67.46
2018-06-16T02:02:41.036Z,67.35
2018-06-16T02:03:40.908Z,67.5
2018-06-16T02:04:40.844Z,67.64
2018-06-16T02:05:40.878Z,67.64
2018-06-16T02:06:40.851Z,67.33
2018-06-16T02:07:41.065Z,67.21
2018-06-16T02:08:40.862Z,66.89
2018-06-16T02:09:40.832Z,67.2
2018-06-16T02:10:40.849Z,67.01
2018-06-16T02:11:40.856Z,66.95
2018-06-16T02:12:40.856Z,66.47
2018-06-16T02:13:40.871Z,66.8
2018-06-16T02:14:40.839Z,66.44
2018-06-16T02:15:40.920Z,66.29
2018-06-16T02:16:40.837Z,66.52
2018-06-16T02:17:40.822Z,66.56
2018-06-16T02:18:40.813Z,66.46
2018-06-16T02:19:40.827Z,66.01
2018-06-16T02:20:40.832Z,66.01
2018-06-16T02:21:40.821Z,65.6
2018-06-16T02:22:40.818Z,65.73
2018-06-16T02:23:40.826Z,65.57
2018-06-16T02:24:40.806Z,65.58
2018-06-16T02:25:40.814Z,65.52
2018-06-16T02:26:40.840Z,65.56
2018-06-16T02:27:40.856Z,65.54
2018-06-16T02:28:40.807Z,65.55
2018-06-16T02:29:40.826Z,65.41
2018-06-16T02:30:40.842Z,65.28
2018-06-16T02:31:40.825Z,65.66
2018-06-16T02:32:40.832Z,65.43
2018-06-16T02:33:40.833Z,65.67
2018-06-16T02:34:40.848Z,65.56
2018-06-16T02:35:40.845Z,65.59
2018-06-16T02:36:40.830Z,65.84
2018-06-16T02:37:40.840Z,65.41
2018-06-16T02:38:41.383Z,65.49
2018-06-16T02:39:40.960Z,65.75
2018-06-16T02:40:40.966Z,65.68
2018-06-16T02:41:40.805Z,65.68
2018-06-16T02:42:40.845Z,65.73
2018-06-16T02:43:40.863Z,66.52
2018-06-16T02:44:40.813Z,66.6
2018-06-16T02:45:40.851Z,66.37
2018-06-16T02:46:40.906Z,66.29
2018-06-16T02:47:40.833Z,66.62
2018-06-16T02:48:40.947Z,66.48
2018-06-16T02:49:40.803Z,66.52
2018-06-16T02:50:40.822Z,66.88
2018-06-16T02:51:41.297Z,66.95
2018-06-16T02:52:40.863Z,66.68
2018-06-16T02:53:41.230Z,66.99
2018-06-16T02:54:41.109Z,66.98
2018-06-16T02:55:40.805Z,67.01
2018-06-16T02:56:40.821Z,66.92
2018-06-16T02:57:40.842Z,67.28
2018-06-16T02:58:40.838Z,67.27
2018-06-16T02:59:40.832Z,67.37
2018-06-16T03:00:40.822Z,67.04
2018-06-16T03:01:40.874Z,67.75
2018-06-16T03:02:40.830Z,67.29
2018-06-16T03:03:40.832Z,67.73
2018-06-16T03:04:40.843Z,67.49
2018-06-16T03:05:40.821Z,67.22
2018-06-16T03:06:40.816Z,67.47
2018-06-16T03:07:40.829Z,67.2
2018-06-16T03:08:40.871Z,67.38
2018-06-16T03:09:40.849Z,67.26
2018-06-16T03:10:41.187Z,67.55
2018-06-16T03:11:40.865Z,67.78
2018-06-16T03:12:40.824Z,67.78
2018-06-16T03:13:40.811Z,67.68
2018-06-16T03:14:40.816Z,67.84
2018-06-16T03:15:40.808Z,67.52
2018-06-16T03:16:40.825Z,67.49
2018-06-16T03:17:40.825Z,67.58
2018-06-16T03:18:40.977Z,67.61
2018-06-16T03:19:40.836Z,67.88
2018-06-16T03:20:40.812Z,67.78
2018-06-16T03:21:40.794Z,67.55
2018-06-16T03:22:40.807Z,67.22
2018-06-16T03:23:40.795Z,67.17
2018-06-16T03:24:40.802Z,67.4
2018-06-16T03:25:40.846Z,67.35
2018-06-16T03:26:40.845Z,67.15
2018-06-16T03:27:40.822Z,67.59
2018-06-16T03:28:40.807Z,67.31
2018-06-16T03:29:40.872Z,67.5
2018-06-16T03:30:40.827Z,67.15
2018-06-16T03:31:40.816Z,67.3
2018-06-16T03:32:40.827Z,67.05
2018-06-16T03:33:40.840Z,66.92
2018-06-16T03:34:40.839Z,67.13
2018-06-16T03:35:40.799Z,66.92
2018-06-16T03:36:40.819Z,67.1
2018-06-16T03:37:40.809Z,66.76
2018-06-16T03:38:40.787Z,66.65
2018-06-16T03:39:40.786Z,66.64
2018-06-16T03:40:40.846Z,66.49
2018-06-16T03:41:40.814Z,66.23
2018-06-16T03:42:40.802Z,66.27
2018-06-16T03:43:40.829Z,66.17
2018-06-16T03:44:40.784Z,66.03
2018-06-16T03:45:40.793Z,65.96
2018-06-16T03:46:40.817Z,66.03
2018-06-16T03:47:40.801Z,66.05
2018-06-16T03:48:40.814Z,66.05
2018-06-16T03:49:40.795Z,65.91
2018-06-16T03:50:40.797Z,66.04
2018-06-16T03:51:40.847Z,66.17
2018-06-16T03:52:40.798Z,66.12
2018-06-16T03:53:40.808Z,66.25
2018-06-16T03:54:40.791Z,66.06
2018-06-16T03:55:40.856Z,65.85
2018-06-16T03:56:40.792Z,65.92
2018-06-16T03:57:40.802Z,65.9
2018-06-16T03:58:40.858Z,65.91
2018-06-16T03:59:40.808Z,66.02
2018-06-16T04:00:40.947Z,66.04
2018-06-16T04:01:40.831Z,65.99
2018-06-16T04:02:41.210Z,66.07
2018-06-16T04:03:40.939Z,66.06
2018-06-16T04:04:41.042Z,65.91
2018-06-16T04:05:40.788Z,66.06
2018-06-16T04:06:40.823Z,66.04
2018-06-16T04:07:40.785Z,65.98
2018-06-16T04:08:40.834Z,65.89
2018-06-16T04:09:40.970Z,65.89
2018-06-16T04:10:40.859Z,66.41
2018-06-16T04:11:40.804Z,66.04
2018-06-16T04:12:40.842Z,65.84
2018-06-16T04:13:40.960Z,66.12
2018-06-16T04:14:40.866Z,65.86
2018-06-16T04:15:40.931Z,65.78
2018-06-16T04:16:40.801Z,65.98
2018-06-16T04:17:41.111Z,65.85
2018-06-16T04:18:41.140Z,65.89
2018-06-16T04:19:41.064Z,65.8
2018-06-16T04:20:44.797Z,65.81
2018-06-16T04:21:40.789Z,66.02
2018-06-16T04:22:40.810Z,66.01
2018-06-16T04:23:40.792Z,66.15
2018-06-16T04:24:40.985Z,66.11
2018-06-16T04:25:40.801Z,66.4
2018-06-16T04:26:40.817Z,66.58
2018-06-16T04:27:40.803Z,66.97
2018-06-16T04:28:40.905Z,67.17
2018-06-16T04:29:40.794Z,66.93
2018-06-16T04:30:40.767Z,66.96
2018-06-16T04:31:40.808Z,66.91
2018-06-16T04:32:40.814Z,67.19
2018-06-16T04:33:40.914Z,66.96
2018-06-16T04:34:40.934Z,66.93
2018-06-16T04:35:40.818Z,66.92
2018-06-16T04:36:40.793Z,67.16
2018-06-16T04:37:40.821Z,67.18
2018-06-16T04:38:40.817Z,67.25
2018-06-16T04:39:40.937Z,67.53
2018-06-16T04:40:40.778Z,67.35
2018-06-16T04:41:40.775Z,67.11
2018-06-16T04:42:40.819Z,67.05
2018-06-16T04:43:40.801Z,67.26
2018-06-16T04:44:40.777Z,67.01
2018-06-16T04:45:41.440Z,67.24
2018-06-16T04:46:40.792Z,67.06
2018-06-16T04:47:40.779Z,67.34
2018-06-16T04:48:40.778Z,67.57
2018-06-16T04:49:40.790Z,67.75
2018-06-16T04:50:41.011Z,67.59
2018-06-16T04:51:40.785Z,68.36
2018-06-16T04:52:40.765Z,68.72
2018-06-16T04:53:40.838Z,68.36
2018-06-16T04:54:40.780Z,67.97
2018-06-16T04:55:40.787Z,67.57
2018-06-16T04:56:40.771Z,68.01
2018-06-16T04:57:40.825Z,67.79
2018-06-16T04:58:40.759Z,68.03
2018-06-16T04:59:40.768Z,67.68
2018-06-16T05:00:40.794Z,67.78
2018-06-16T05:01:40.758Z,67.59
2018-06-16T05:02:40.766Z,67.91
2018-06-16T05:03:40.766Z,68.14
2018-06-16T05:04:40.766Z,68.31
2018-06-16T05:05:40.785Z,67.85
2018-06-16T05:06:40.767Z,67.82
2018-06-16T05:07:40.793Z,67.59
2018-06-16T05:08:41.040Z,67.66
2018-06-16T05:09:40.789Z,68.17
2018-06-16T05:10:40.811Z,68.05
2018-06-16T05:11:40.980Z,67.68
2018-06-16T05:12:41.798Z,67.79
2018-06-16T05:13:40.993Z,68.09
2018-06-16T05:14:40.782Z,67.91
2018-06-16T05:15:40.790Z,67.7
2018-06-16T05:16:40.793Z,68.17
2018-06-16T05:17:40.778Z,67.77
2018-06-16T05:18:40.822Z,67.92
2018-06-16T05:19:41.192Z,67.77
2018-06-16T05:20:40.884Z,67.73
2018-06-16T05:21:40.827Z,67.83
2018-06-16T05:22:40.995Z,67.65
2018-06-16T05:23:40.753Z,67.53
2018-06-16T05:24:40.855Z,67.54
2018-06-16T05:25:41.202Z,68.32
2018-06-16T05:26:40.769Z,68.15
2018-06-16T05:27:40.940Z,67.66
2018-06-16T05:28:40.802Z,67.64
2018-06-16T05:29:40.946Z,67.9
2018-06-16T05:30:40.790Z,67.65
2018-06-16T05:31:40.784Z,67.69
2018-06-16T05:32:40.782Z,67.59
2018-06-16T05:33:40.781Z,67.74
2018-06-16T05:34:40.756Z,67.52
2018-06-16T05:35:40.802Z,67.4
2018-06-16T05:36:40.844Z,67.49
2018-06-16T05:37:40.812Z,67.12
2018-06-16T05:38:40.759Z,67.03
2018-06-16T05:39:40.775Z,66.82
2018-06-16T05:40:40.767Z,66.72
2018-06-16T05:41:40.775Z,66.79
2018-06-16T05:42:41.009Z,66.48
2018-06-16T05:43:40.788Z,66.09
2018-06-16T05:44:40.851Z,65.55
2018-06-16T05:45:40.774Z,65.51
2018-06-16T05:46:40.935Z,65.23
2018-06-16T05:47:41.005Z,65.38
2018-06-16T05:48:40.763Z,65.37
2018-06-16T05:49:40.985Z,65.11
2018-06-16T05:50:40.889Z,64.84
2018-06-16T05:51:40.863Z,65.16
2018-06-16T05:52:40.955Z,64.71
2018-06-16T05:53:40.852Z,64.62
2018-06-16T05:54:40.819Z,64.65
2018-06-16T05:55:40.782Z,64.91
2018-06-16T05:56:40.944Z,64.74
2018-06-16T05:57:41.007Z,64.2
2018-06-16T05:58:40.788Z,64.42
2018-06-16T05:59:41.002Z,64.48
2018-06-16T06:00:40.786Z,64.61
2018-06-16T06:01:40.799Z,64.67
2018-06-16T06:02:40.803Z,64.51
2018-06-16T06:03:40.771Z,64.6
2018-06-16T06:04:40.899Z,64.65
2018-06-16T06:05:40.808Z,64.76
2018-06-16T06:06:40.754Z,64.04
2018-06-16T06:07:40.766Z,64.68
2018-06-16T06:08:40.805Z,64.72
2018-06-16T06:09:40.734Z,64.81
2018-06-16T06:10:40.738Z,64.76
2018-06-16T06:11:40.753Z,64.57
2018-06-16T06:12:40.729Z,64.66
2018-06-16T06:13:40.726Z,64.75
2018-06-16T06:14:40.792Z,64.65
2018-06-16T06:15:41.538Z,64.48
2018-06-16T06:16:40.740Z,64.4
2018-06-16T06:17:40.770Z,64.87
2018-06-16T06:18:40.764Z,65.32
2018-06-16T06:19:40.907Z,65.3
2018-06-16T06:20:40.819Z,65.19
2018-06-16T06:21:40.756Z,65.09
2018-06-16T06:22:41.031Z,65.13
2018-06-16T06:23:40.783Z,65.13
2018-06-16T06:24:40.929Z,64.31
2018-06-16T06:25:40.777Z,64.74
2018-06-16T06:26:40.729Z,64.85
2018-06-16T06:27:40.784Z,65.12
2018-06-16T06:28:42.168Z,65.4
2018-06-16T06:29:40.827Z,65.2
2018-06-16T06:30:40.891Z,65.27
2018-06-16T06:31:40.807Z,65.13
2018-06-16T06:32:40.903Z,64.77
2018-06-16T06:33:40.843Z,64.79
2018-06-16T06:34:40.918Z,64.8
2018-06-16T06:35:40.764Z,64.88
2018-06-16T06:36:40.771Z,64.89
2018-06-16T06:37:41.382Z,64.56
2018-06-16T06:38:40.968Z,64.81
2018-06-16T06:39:40.746Z,65.2
2018-06-16T06:40:40.766Z,65.05
2018-06-16T06:41:40.788Z,64.57
2018-06-16T06:42:40.731Z,64.47
2018-06-16T06:43:40.762Z,64.7
2018-06-16T06:44:40.801Z,64.33
2018-06-16T06:45:40.760Z,64.69
2018-06-16T06:46:40.728Z,64.72
2018-06-16T06:47:40.774Z,64.84
2018-06-16T06:48:40.751Z,65.26
2018-06-16T06:49:40.754Z,64.95
2018-06-16T06:50:40.993Z,64.92
2018-06-16T06:51:40.948Z,64.82
2018-06-16T06:52:40.718Z,65.07
2018-06-16T06:53:40.751Z,65.34
2018-06-16T06:54:40.853Z,65.21
2018-06-16T06:55:40.758Z,64.88
2018-06-16T06:56:40.723Z,65.17
2018-06-16T06:57:40.829Z,65.03
2018-06-16T06:58:40.777Z,64.66
2018-06-16T06:59:40.723Z,64.73
2018-06-16T07:00:40.843Z,64.85
2018-06-16T07:01:40.725Z,64.89
2018-06-16T07:02:40.731Z,64.62
2018-06-16T07:03:40.779Z,64.62
2018-06-16T07:04:40.725Z,64.71
2018-06-16T07:05:40.913Z,64.81
2018-06-16T07:06:40.737Z,64.76
2018-06-16T07:07:40.785Z,64.43
2018-06-16T07:08:40.778Z,64.48
2018-06-16T07:09:40.785Z,64.5
2018-06-16T07:10:41.528Z,64.3
2018-06-16T07:11:40.762Z,64.4
2018-06-16T07:12:40.713Z,64.19
2018-06-16T07:13:40.712Z,64.44
2018-06-16T07:14:40.754Z,64.54
2018-06-16T07:15:40.757Z,64.52
2018-06-16T07:16:40.734Z,64.23
2018-06-16T07:17:40.777Z,64.08
2018-06-16T07:18:40.707Z,64.16
2018-06-16T07:19:40.727Z,64.06
2018-06-16T07:20:40.734Z,64.06
2018-06-16T07:21:40.742Z,64.15
2018-06-16T07:22:40.710Z,64.43
2018-06-16T07:23:40.780Z,64.41
2018-06-16T07:24:40.709Z,63.99
2018-06-16T07:25:40.745Z,64.05
2018-06-16T07:26:40.732Z,64.11
2018-06-16T07:27:40.719Z,64.16
2018-06-16T07:28:40.739Z,64.12
2018-06-16T07:29:40.776Z,64.26
2018-06-16T07:30:40.900Z,64.26
2018-06-16T07:31:40.743Z,64.14
2018-06-16T07:32:40.754Z,63.99
2018-06-16T07:33:43.203Z,63.68
2018-06-16T07:34:40.756Z,63.23
2018-06-16T07:35:40.694Z,63.16
2018-06-16T07:36:40.718Z,63.63
2018-06-16T07:37:40.737Z,63.66
2018-06-16T07:38:40.731Z,63.45
2018-06-16T07:39:40.709Z,63.58
2018-06-16T07:40:40.702Z,63.71
2018-06-16T07:41:40.712Z,63.49
2018-06-16T07:42:40.780Z,63.5
2018-06-16T07:43:42.117Z,63.5
2018-06-16T07:44:41.860Z,64.17
2018-06-16T07:45:40.712Z,64.51
2018-06-16T07:46:40.725Z,64.44
2018-06-16T07:47:40.734Z,63.92
2018-06-16T07:48:40.969Z,64.07
2018-06-16T07:49:40.701Z,64.56
2018-06-16T07:50:40.715Z,64.06
2018-06-16T07:51:40.702Z,64.12
2018-06-16T07:52:40.729Z,63.54
2018-06-16T07:53:40.790Z,63.17
2018-06-16T07:54:40.703Z,63.73
2018-06-16T07:55:40.744Z,63.76
2018-06-16T07:56:40.925Z,63.34
2018-06-16T07:57:40.718Z,63.76
2018-06-16T07:58:40.737Z,63.38
2018-06-16T07:59:40.745Z,63.56
2018-06-16T08:00:41.008Z,63.53
2018-06-16T08:01:40.750Z,63.33
2018-06-16T08:02:41.024Z,63.57
2018-06-16T08:03:40.725Z,63.72
2018-06-16T08:04:40.759Z,62.94
2018-06-16T08:05:40.862Z,62.61
2018-06-16T08:06:40.744Z,62.45
2018-06-16T08:07:40.757Z,62.51
2018-06-16T08:08:40.709Z,62.56
2018-06-16T08:09:40.696Z,62.57
2018-06-16T08:10:40.709Z,63.17
2018-06-16T08:11:40.731Z,62.95
2018-06-16T08:12:40.914Z,62.73
2018-06-16T08:13:40.705Z,61.94
2018-06-16T08:14:40.728Z,62.4
2018-06-16T08:15:40.841Z,62.3
2018-06-16T08:16:40.709Z,61.82
2018-06-16T08:17:40.704Z,62.53
2018-06-16T08:18:40.721Z,62.43
2018-06-16T08:19:40.710Z,62.46
2018-06-16T08:20:40.764Z,62.54
2018-06-16T08:21:40.699Z,62.58
2018-06-16T08:22:40.697Z,62.92
2018-06-16T08:23:40.754Z,63.04
2018-06-16T08:24:41.037Z,62.92
2018-06-16T08:25:40.721Z,62.17
2018-06-16T08:26:40.722Z,62.27
2018-06-16T08:27:40.748Z,62.57
2018-06-16T08:28:40.722Z,62.12
2018-06-16T08:29:40.730Z,62.3
2018-06-16T08:30:40.743Z,62.6
2018-06-16T08:31:40.764Z,61.61
2018-06-16T08:32:40.694Z,61.72
2018-06-16T08:33:40.702Z,61.3
2018-06-16T08:34:40.834Z,59.77
2018-06-16T08:35:40.697Z,59.92
2018-06-16T08:36:40.680Z,60.37
2018-06-16T08:37:40.719Z,58.33
2018-06-16T08:38:40.713Z,59.06
2018-06-16T08:39:40.717Z,59.47
2018-06-16T08:40:40.726Z,59.67
2018-06-16T08:41:40.709Z,59.76
2018-06-16T08:42:40.783Z,60.63
2018-06-16T08:43:40.840Z,61.42
2018-06-16T08:44:40.827Z,60.56
2018-06-16T08:45:40.854Z,60.18
2018-06-16T08:46:40.886Z,60.17
2018-06-16T08:47:40.890Z,59.5
2018-06-16T08:48:40.970Z,58.96
2018-06-16T08:49:40.888Z,58.6
2018-06-16T08:50:40.713Z,58.96
2018-06-16T08:51:40.778Z,59.96
2018-06-16T08:52:40.765Z,59.53
2018-06-16T08:53:40.716Z,57.89
2018-06-16T08:54:40.812Z,56.91
2018-06-16T08:55:41.010Z,57.44
2018-06-16T08:56:40.776Z,57.48
2018-06-16T08:57:40.886Z,57.49
2018-06-16T08:58:40.781Z,57.53
2018-06-16T08:59:40.765Z,58.12
2018-06-16T09:00:40.733Z,58.2
2018-06-16T09:01:40.713Z,57.93
2018-06-16T09:02:40.723Z,56.31
2018-06-16T09:03:40.691Z,55.8
2018-06-16T09:04:40.692Z,56.47
2018-06-16T09:05:40.688Z,56.32
2018-06-16T09:06:40.747Z,55.43
2018-06-16T09:07:40.714Z,54.7
2018-06-16T09:08:40.677Z,55.1
2018-06-16T09:09:40.687Z,55.64
2018-06-16T09:10:40.725Z,55.66
2018-06-16T09:11:40.949Z,54.29
2018-06-16T09:12:40.816Z,53.68
2018-06-16T09:13:40.691Z,54.47
2018-06-16T09:14:40.688Z,55.27
2018-06-16T09:15:40.695Z,54.17
2018-06-16T09:16:40.805Z,54.07
2018-06-16T09:17:40.672Z,53.51
2018-06-16T09:18:40.733Z,53.21
2018-06-16T09:19:40.739Z,53.05
2018-06-16T09:20:40.693Z,52.48
2018-06-16T09:21:40.701Z,52.99
2018-06-16T09:22:41.002Z,53.41
2018-06-16T09:23:40.792Z,54.3
2018-06-16T09:24:40.704Z,53.85
2018-06-16T09:25:40.805Z,51.72
2018-06-16T09:26:40.720Z,51.47
2018-06-16T09:27:40.687Z,51.88
2018-06-16T09:28:40.730Z,50.73
2018-06-16T09:29:40.756Z,49.99
2018-06-16T09:30:40.720Z,48.08
2018-06-16T09:31:41.012Z,49.15
2018-06-16T09:32:40.823Z,47.17
2018-06-16T09:33:40.675Z,48.46
2018-06-16T09:34:40.671Z,50.38
2018-06-16T09:35:40.694Z,48.79
2018-06-16T09:36:40.659Z,48.43
2018-06-16T09:37:40.681Z,47.86
2018-06-16T09:38:40.703Z,47.22
2018-06-16T09:39:40.785Z,48.93
2018-06-16T09:40:40.705Z,50.32
2018-06-16T09:41:40.668Z,48
2018-06-16T09:42:40.681Z,47.66
2018-06-16T09:43:40.671Z,48.75
2018-06-16T09:44:40.804Z,49.27
2018-06-16T09:45:40.805Z,48.87
2018-06-16T09:46:40.774Z,47.02
2018-06-16T09:47:40.825Z,46.29
2018-06-16T09:48:40.815Z,43.93
2018-06-16T09:49:40.810Z,45.22
2018-06-16T09:50:40.803Z,46.52
2018-06-16T09:51:40.802Z,48.23
2018-06-16T09:52:41.532Z,45.77
2018-06-16T09:53:40.656Z,47.26
2018-06-16T09:54:40.679Z,48.97
2018-06-16T09:55:40.673Z,49.08
2018-06-16T09:56:40.752Z,48.05
2018-06-16T09:57:40.654Z,48.43
2018-06-16T09:58:40.661Z,48.55
2018-06-16T09:59:40.693Z,46.7
2018-06-16T10:00:40.694Z,47.59
2018-06-16T10:01:40.712Z,47.27
2018-06-16T10:02:40.681Z,48.09
2018-06-16T10:03:40.689Z,45.84
2018-06-16T10:04:40.681Z,48.26
2018-06-16T10:05:40.718Z,47.02
2018-06-16T10:06:40.680Z,45.03
2018-06-16T10:07:40.886Z,44.68
2018-06-16T10:08:42.778Z,45.51
2018-06-16T10:09:42.039Z,44.82
2018-06-16T10:10:41.246Z,45.89
2018-06-16T10:11:43.432Z,46.23
2018-06-16T10:12:40.676Z,46.69
2018-06-16T10:13:40.659Z,47.03
2018-06-16T10:14:40.661Z,46.47
2018-06-16T10:15:41.548Z,46.23
2018-06-16T10:16:42.478Z,43.7
2018-06-16T10:17:40.825Z,42.88
2018-06-16T10:18:40.872Z,43.93
2018-06-16T10:19:40.672Z,45.79
2018-06-16T10:20:41.916Z,46.24
2018-06-16T10:21:40.670Z,46.89
2018-06-16T10:22:40.727Z,47.87
2018-06-16T10:23:40.700Z,48.13
2018-06-16T10:24:40.671Z,47.87
2018-06-16T10:25:40.786Z,46.96
2018-06-16T10:26:40.837Z,47.1
2018-06-16T10:27:40.730Z,47.63
2018-06-16T10:28:40.671Z,47.9
2018-06-16T10:29:40.687Z,47.62
2018-06-16T10:30:41.618Z,46.79
2018-06-16T10:31:41.125Z,46.22
2018-06-16T10:32:40.702Z,45.18
2018-06-16T10:33:40.677Z,46.54
2018-06-16T10:34:40.672Z,46.03
2018-06-16T10:35:40.682Z,46.74
2018-06-16T10:36:40.724Z,47.15
2018-06-16T10:37:40.684Z,48.82
2018-06-16T10:38:40.676Z,48.82
2018-06-16T10:39:40.687Z,47.6
2018-06-16T10:40:40.751Z,45.75
2018-06-16T10:41:40.719Z,46.49
2018-06-16T10:42:40.700Z,45.82
2018-06-16T10:43:40.786Z,45.91
2018-06-16T10:44:40.742Z,46.78
2018-06-16T10:45:40.827Z,48.02
2018-06-16T10:46:40.750Z,47.76
2018-06-16T10:47:40.697Z,47.32
2018-06-16T10:48:40.796Z,46.62
2018-06-16T10:49:40.726Z,46.98
2018-06-16T10:50:40.733Z,47.25
2018-06-16T10:51:40.715Z,47.49
2018-06-16T10:52:40.690Z,44.52
2018-06-16T10:53:40.698Z,45.44
2018-06-16T10:54:40.700Z,44.71
2018-06-16T10:55:40.705Z,44.53
2018-06-16T10:56:40.726Z,44.92
2018-06-16T10:57:40.703Z,47.28
2018-06-16T10:58:40.695Z,47.73
2018-06-16T10:59:40.717Z,46.54
2018-06-16T11:00:40.710Z,46.28
2018-06-16T11:01:40.814Z,45.35
2018-06-16T11:02:40.709Z,45.78
2018-06-16T11:03:40.720Z,46.42
2018-06-16T11:04:40.735Z,45.59
2018-06-16T11:05:40.752Z,46.22
2018-06-16T11:06:40.764Z,45.3
2018-06-16T11:07:40.721Z,45.23
2018-06-16T11:08:40.790Z,46.15
2018-06-16T11:09:40.705Z,45.12
2018-06-16T11:10:40.769Z,44.06
2018-06-16T11:11:40.953Z,44
2018-06-16T11:12:40.767Z,44.87
2018-06-16T11:13:40.738Z,45.31
2018-06-16T11:14:40.718Z,44.44
2018-06-16T11:15:40.905Z,42.91
2018-06-16T11:16:40.727Z,43.66
2018-06-16T11:17:40.748Z,43
2018-06-16T11:18:40.746Z,42.69
2018-06-16T11:19:40.762Z,42.95
2018-06-16T11:20:40.723Z,43.49
2018-06-16T11:21:40.875Z,45.07
2018-06-16T11:22:40.742Z,43.88
2018-06-16T11:23:40.807Z,43.18
2018-06-16T11:24:40.739Z,44.79
2018-06-16T11:25:40.720Z,45.08
2018-06-16T11:26:41.101Z,44.63
2018-06-16T11:27:40.945Z,44.95
2018-06-16T11:28:40.915Z,45.24
2018-06-16T11:29:40.772Z,44.07
2018-06-16T11:30:40.917Z,44.43
2018-06-16T11:31:40.818Z,44.95
2018-06-16T11:32:40.761Z,45.24
2018-06-16T11:33:40.923Z,44.82
2018-06-16T11:34:40.933Z,43.3
2018-06-16T11:35:40.941Z,42.56
2018-06-16T11:36:40.933Z,44.08
2018-06-16T11:37:40.786Z,43.36
2018-06-16T11:38:40.955Z,43.25
2018-06-16T11:39:41.912Z,42.71
2018-06-16T11:40:40.787Z,42.99
2018-06-16T11:41:40.872Z,44.18
2018-06-16T11:42:40.777Z,44.78
2018-06-16T11:43:40.989Z,43.17
2018-06-16T11:44:40.998Z,43.03
2018-06-16T11:45:40.803Z,44.17
2018-06-16T11:46:40.909Z,43.13
2018-06-16T11:47:40.785Z,43.3
2018-06-16T11:48:41.120Z,43.96
2018-06-16T11:49:41.028Z,43.46
2018-06-16T11:50:40.778Z,42.96
2018-06-16T11:51:40.943Z,42.6
2018-06-16T11:52:40.784Z,41.91
2018-06-16T11:53:41.048Z,41.95
2018-06-16T11:54:40.960Z,42.33
2018-06-16T11:55:40.969Z,43.52
2018-06-16T11:56:41.076Z,44.02
2018-06-16T11:57:41.062Z,42.62
2018-06-16T11:58:40.993Z,41.86
2018-06-16T11:59:40.884Z,41.77
2018-06-16T12:00:41.008Z,42.55
2018-06-16T12:01:40.814Z,43.72
2018-06-16T12:02:40.790Z,42.98
2018-06-16T12:03:40.922Z,41.09
2018-06-16T12:04:40.926Z,40.25
2018-06-16T12:05:40.783Z,40.56
2018-06-16T12:06:40.783Z,41.45
2018-06-16T12:07:40.819Z,42.16
2018-06-16T12:08:40.964Z,42.53
2018-06-16T12:09:40.963Z,41.71
2018-06-16T12:10:40.783Z,42.62
2018-06-16T12:11:40.818Z,41.28
2018-06-16T12:12:40.821Z,42.69
2018-06-16T12:13:40.946Z,42.32
2018-06-16T12:14:40.815Z,42.01
2018-06-16T12:15:40.806Z,42.24
2018-06-16T12:16:40.837Z,42.74
2018-06-16T12:17:40.839Z,42.54
2018-06-16T12:18:40.968Z,42.12
2018-06-16T12:19:40.936Z,40.65
2018-06-16T12:20:40.787Z,41.93
2018-06-16T12:21:40.809Z,40.03
2018-06-16T12:22:40.798Z,39.66
2018-06-16T12:23:40.958Z,39.82
2018-06-16T12:24:40.972Z,40.21
2018-06-16T12:25:40.978Z,42.25
2018-06-16T12:26:40.868Z,40.73
2018-06-16T12:27:41.000Z,41.15
2018-06-16T12:28:40.998Z,41.01
2018-06-16T12:29:43.324Z,41.3
2018-06-16T12:30:40.847Z,41.92
2018-06-16T12:31:40.946Z,41.17
2018-06-16T12:32:41.025Z,42.13
2018-06-16T12:33:40.924Z,41.19
2018-06-16T12:34:40.853Z,40.84
2018-06-16T12:35:41.016Z,40.42
2018-06-16T12:36:40.874Z,39.02
2018-06-16T12:37:40.853Z,40.35
2018-06-16T12:38:41.066Z,40.45
2018-06-16T12:39:40.838Z,40.4
2018-06-16T12:40:40.821Z,41.87
2018-06-16T12:41:40.822Z,41.18
2018-06-16T12:42:40.832Z,40.73
2018-06-16T12:43:42.021Z,40.99
2018-06-16T12:44:42.295Z,40.86
2018-06-16T12:45:40.850Z,41.03
2018-06-16T12:46:40.914Z,40.31
2018-06-16T12:47:40.845Z,41.23
2018-06-16T12:48:40.913Z,41.16
2018-06-16T12:49:41.014Z,40.35
2018-06-16T12:50:40.876Z,40.9
2018-06-16T12:51:40.849Z,41.23
2018-06-16T12:52:41.007Z,41.82
2018-06-16T12:53:41.058Z,41.16
2018-06-16T12:54:41.011Z,42.19
2018-06-16T12:55:40.937Z,42.84